Terminal Aerodrome Forecast
Issued by NWS

Current Version | Previous Version | Text Only | Print | Product List | Glossary Off
Versions: 1 2 3 4 5 6 7 8 9 10 11 12 13 14 15 16 17 18 19 20 21 22 23 24 25 26 27 28 29 30

000
FTUS41 KRLX 181120
TAFCKB
TAF
KCKB 181120Z 1812/1912 00000KT 6SM SHRA BKN035 OVC050
      TEMPO 1812/1814 3SM TSRA SCT010 OVC020CB
     FM181400 22004KT 5SM SHRA VCTS BKN008 OVC035CB
     FM181600 25006KT P6SM SHRA VCTS BKN020 OVC040CB
     FM181800 26008KT P6SM SCT030 BKN040
     FM182000 26007KT P6SM BKN040
     FM190100 26003KT P6SM FEW070
     FM190700 00000KT 5SM BR FEW001
     FM190900 00000KT 1/2SM FG BKN001=

USA.gov is the U.S. government's official web portal to all federal, state and local government web resources and services.